createdAt,value
2022-10-26T00:03:07.954Z,1006.899
2022-10-26T00:23:07.617Z,1006.766
2022-10-26T00:43:07.280Z,1006.782
2022-10-26T01:03:07.928Z,1006.673
2022-10-26T01:23:07.786Z,1006.549
2022-10-26T01:43:07.625Z,1006.303
2022-10-26T02:03:08.509Z,1006.159
2022-10-26T02:23:07.221Z,1005.988
2022-10-26T02:43:07.945Z,1005.799
2022-10-26T03:03:08.700Z,1005.704
2022-10-26T03:23:07.408Z,1005.478
2022-10-26T03:43:07.339Z,1005.535
2022-10-26T04:03:08.014Z,1005.412
2022-10-26T04:23:07.720Z,1005.523
2022-10-26T04:43:07.684Z,1005.407
2022-10-26T05:03:08.462Z,1005.368
2022-10-26T05:23:07.224Z,1005.414
2022-10-26T05:43:08.027Z,1005.48
2022-10-26T06:03:08.668Z,1005.593
2022-10-26T06:23:07.339Z,1005.718
2022-10-26T06:43:08.064Z,1005.86
2022-10-26T07:03:09.111Z,1005.897
2022-10-26T07:23:07.929Z,1005.955
2022-10-26T07:43:07.845Z,1006.027
2022-10-26T08:03:08.660Z,1006.014
2022-10-26T08:23:07.343Z,1005.939
2022-10-26T08:43:07.333Z,1005.904
2022-10-26T09:03:08.126Z,1005.874
2022-10-26T09:23:07.864Z,1005.919
2022-10-26T09:43:07.834Z,1005.917
2022-10-26T10:03:08.654Z,1006
2022-10-26T10:23:07.484Z,1006.462
2022-10-26T10:43:07.441Z,1006.541
2022-10-26T11:03:08.145Z,1006.595
2022-10-26T11:23:07.869Z,1006.816
2022-10-26T11:43:07.858Z,1006.901
2022-10-26T12:03:08.773Z,1007.011
2022-10-26T12:23:07.546Z,1006.945
2022-10-26T12:43:07.465Z,1007.176
2022-10-26T13:03:08.243Z,1007.359
2022-10-26T13:23:07.961Z,1007.553
2022-10-26T13:43:07.905Z,1007.624
2022-10-26T14:03:08.610Z,1007.75
2022-10-26T14:23:07.389Z,1007.847
2022-10-26T14:43:07.380Z,1008.095
2022-10-26T15:03:08.126Z,1008.205
2022-10-26T15:23:07.952Z,1008.389
2022-10-26T15:43:07.929Z,1008.61
2022-10-26T16:03:08.727Z,1008.811
2022-10-26T16:23:07.532Z,1009.006
2022-10-26T16:43:07.523Z,1009.406
2022-10-26T17:03:08.518Z,1009.563
2022-10-26T17:23:07.286Z,1010.004
2022-10-26T17:43:07.266Z,1010.407
2022-10-26T18:03:09.041Z,1010.789
2022-10-26T18:23:07.839Z,1011.031
2022-10-26T18:43:07.686Z,1011.348
2022-10-26T19:03:08.739Z,1011.653
2022-10-26T19:23:07.474Z,1011.879
2022-10-26T19:43:07.496Z,1011.991
2022-10-26T20:03:08.414Z,1012.283
2022-10-26T20:23:07.185Z,1012.515
2022-10-26T20:43:07.080Z,1012.631
2022-10-26T21:03:09.052Z,1012.823
2022-10-26T21:23:07.807Z,1012.835
2022-10-26T21:43:07.782Z,1012.93
2022-10-26T22:03:08.983Z,1013.118
2022-10-26T22:23:07.698Z,1013.16
2022-10-26T22:43:07.465Z,1013.223
2022-10-26T23:03:08.051Z,1013.303
2022-10-26T23:23:07.788Z,1013.342
2022-10-26T23:43:07.425Z,1013.505
